sensor_id;sensor_type;location;lat;lon;timestamp;P1;durP1;ratioP1;P2;durP2;ratioP2
23099;SDS011;53791;50.696;4.396;2023-06-22T00:01:46;3.37;;;1.77;;
23099;SDS011;53791;50.696;4.396;2023-06-22T00:04:14;2.05;;;1.15;;
23099;SDS011;53791;50.696;4.396;2023-06-22T00:06:41;2.87;;;1.75;;
23099;SDS011;53791;50.696;4.396;2023-06-22T00:09:09;2.30;;;1.57;;
23099;SDS011;53791;50.696;4.396;2023-06-22T00:11:37;1.90;;;1.20;;
23099;SDS011;53791;50.696;4.396;2023-06-22T00:14:04;6.50;;;1.42;;
23099;SDS011;53791;50.696;4.396;2023-06-22T00:16:32;2.40;;;1.40;;
23099;SDS011;53791;50.696;4.396;2023-06-22T00:19:00;4.12;;;1.42;;
23099;SDS011;53791;50.696;4.396;2023-06-22T00:21:35;2.17;;;1.30;;
23099;SDS011;53791;50.696;4.396;2023-06-22T00:24:04;2.25;;;1.57;;
23099;SDS011;53791;50.696;4.396;2023-06-22T00:26:38;2.58;;;1.35;;
23099;SDS011;53791;50.696;4.396;2023-06-22T00:29:05;3.35;;;1.67;;
23099;SDS011;53791;50.696;4.396;2023-06-22T00:31:33;1.98;;;1.10;;
23099;SDS011;53791;50.696;4.396;2023-06-22T00:34:00;3.35;;;1.98;;
23099;SDS011;53791;50.696;4.396;2023-06-22T00:36:28;2.40;;;1.27;;
23099;SDS011;53791;50.696;4.396;2023-06-22T00:38:55;1.67;;;1.07;;
23099;SDS011;53791;50.696;4.396;2023-06-22T00:41:24;2.37;;;1.45;;
23099;SDS011;53791;50.696;4.396;2023-06-22T00:43:54;2.10;;;1.20;;
23099;SDS011;53791;50.696;4.396;2023-06-22T00:46:21;1.77;;;1.20;;
23099;SDS011;53791;50.696;4.396;2023-06-22T00:48:51;2.12;;;1.10;;
23099;SDS011;53791;50.696;4.396;2023-06-22T00:51:20;2.00;;;1.12;;
23099;SDS011;53791;50.696;4.396;2023-06-22T00:53:50;3.42;;;1.87;;
23099;SDS011;53791;50.696;4.396;2023-06-22T00:56:19;2.40;;;1.40;;
23099;SDS011;53791;50.696;4.396;2023-06-22T00:58:49;1.60;;;1.10;;
23099;SDS011;53791;50.696;4.396;2023-06-22T01:01:18;2.17;;;1.45;;
23099;SDS011;53791;50.696;4.396;2023-06-22T01:03:49;1.87;;;1.15;;
23099;SDS011;53791;50.696;4.396;2023-06-22T01:06:19;5.92;;;1.50;;
23099;SDS011;53791;50.696;4.396;2023-06-22T01:08:51;2.92;;;1.32;;
23099;SDS011;53791;50.696;4.396;2023-06-22T01:11:26;1.82;;;1.02;;
23099;SDS011;53791;50.696;4.396;2023-06-22T01:13:57;2.87;;;1.37;;
23099;SDS011;53791;50.696;4.396;2023-06-22T01:16:48;2.20;;;1.30;;
23099;SDS011;53791;50.696;4.396;2023-06-22T01:22:07;2.10;;;1.35;;
23099;SDS011;53791;50.696;4.396;2023-06-22T01:27:38;1.72;;;1.02;;
23099;SDS011;53791;50.696;4.396;2023-06-22T01:30:11;2.80;;;1.62;;
23099;SDS011;53791;50.696;4.396;2023-06-22T01:32:41;1.77;;;1.20;;
23099;SDS011;53791;50.696;4.396;2023-06-22T01:35:10;3.77;;;1.70;;
23099;SDS011;53791;50.696;4.396;2023-06-22T01:37:44;2.58;;;1.40;;
23099;SDS011;53791;50.696;4.396;2023-06-22T01:40:12;2.65;;;1.57;;
23099;SDS011;53791;50.696;4.396;2023-06-22T01:42:41;2.42;;;1.40;;
23099;SDS011;53791;50.696;4.396;2023-06-22T01:45:10;2.27;;;1.67;;
23099;SDS011;53791;50.696;4.396;2023-06-22T01:47:39;2.67;;;1.42;;
23099;SDS011;53791;50.696;4.396;2023-06-22T01:50:07;2.87;;;1.30;;
23099;SDS011;53791;50.696;4.396;2023-06-22T01:52:35;2.47;;;1.55;;
23099;SDS011;53791;50.696;4.396;2023-06-22T01:55:03;2.67;;;1.45;;
23099;SDS011;53791;50.696;4.396;2023-06-22T01:57:33;2.87;;;1.62;;
23099;SDS011;53791;50.696;4.396;2023-06-22T02:00:07;1.95;;;1.22;;
23099;SDS011;53791;50.696;4.396;2023-06-22T02:02:36;7.53;;;1.62;;
23099;SDS011;53791;50.696;4.396;2023-06-22T02:05:08;4.67;;;2.00;;
23099;SDS011;53791;50.696;4.396;2023-06-22T02:07:44;2.60;;;1.57;;
23099;SDS011;53791;50.696;4.396;2023-06-22T02:10:08;2.58;;;1.70;;
23099;SDS011;53791;50.696;4.396;2023-06-22T02:12:38;1.90;;;1.20;;
23099;SDS011;53791;50.696;4.396;2023-06-22T02:15:08;2.15;;;1.37;;
23099;SDS011;53791;50.696;4.396;2023-06-22T02:17:38;5.35;;;1.50;;
23099;SDS011;53791;50.696;4.396;2023-06-22T02:20:11;1.52;;;0.93;;
23099;SDS011;53791;50.696;4.396;2023-06-22T02:22:43;2.37;;;1.05;;
23099;SDS011;53791;50.696;4.396;2023-06-22T02:25:10;7.12;;;1.67;;
23099;SDS011;53791;50.696;4.396;2023-06-22T02:27:38;1.95;;;1.20;;
23099;SDS011;53791;50.696;4.396;2023-06-22T02:30:12;2.05;;;1.30;;
23099;SDS011;53791;50.696;4.396;2023-06-22T02:32:36;2.12;;;1.32;;
23099;SDS011;53791;50.696;4.396;2023-06-22T02:35:13;1.72;;;1.07;;
23099;SDS011;53791;50.696;4.396;2023-06-22T02:37:40;2.22;;;1.45;;
23099;SDS011;53791;50.696;4.396;2023-06-22T02:40:11;1.87;;;1.02;;
23099;SDS011;53791;50.696;4.396;2023-06-22T02:42:39;2.72;;;1.40;;
23099;SDS011;53791;50.696;4.396;2023-06-22T02:45:07;2.95;;;1.80;;
23099;SDS011;53791;50.696;4.396;2023-06-22T02:47:34;1.70;;;1.00;;
23099;SDS011;53791;50.696;4.396;2023-06-22T02:50:02;2.42;;;1.20;;
23099;SDS011;53791;50.696;4.396;2023-06-22T02:52:30;1.90;;;1.30;;
23099;SDS011;53791;50.696;4.396;2023-06-22T02:55:09;3.52;;;1.67;;
23099;SDS011;53791;50.696;4.396;2023-06-22T02:57:42;2.08;;;1.30;;
23099;SDS011;53791;50.696;4.396;2023-06-22T03:00:12;1.90;;;1.20;;
23099;SDS011;53791;50.696;4.396;2023-06-22T03:02:47;2.12;;;1.32;;
23099;SDS011;53791;50.696;4.396;2023-06-22T03:05:15;1.82;;;1.12;;
23099;SDS011;53791;50.696;4.396;2023-06-22T03:07:44;3.15;;;1.50;;
23099;SDS011;53791;50.696;4.396;2023-06-22T03:10:12;2.27;;;1.35;;
23099;SDS011;53791;50.696;4.396;2023-06-22T03:12:41;1.55;;;0.95;;
23099;SDS011;53791;50.696;4.396;2023-06-22T03:15:10;3.65;;;1.70;;
23099;SDS011;53791;50.696;4.396;2023-06-22T03:17:39;3.22;;;1.67;;
23099;SDS011;53791;50.696;4.396;2023-06-22T03:20:07;1.50;;;0.85;;
23099;SDS011;53791;50.696;4.396;2023-06-22T03:22:39;2.50;;;1.30;;
23099;SDS011;53791;50.696;4.396;2023-06-22T03:25:09;2.15;;;1.35;;
23099;SDS011;53791;50.696;4.396;2023-06-22T03:27:38;2.20;;;1.20;;
23099;SDS011;53791;50.696;4.396;2023-06-22T03:30:07;1.72;;;1.15;;
23099;SDS011;53791;50.696;4.396;2023-06-22T03:32:35;1.85;;;1.22;;
23099;SDS011;53791;50.696;4.396;2023-06-22T03:35:03;2.65;;;1.50;;
23099;SDS011;53791;50.696;4.396;2023-06-22T03:37:31;1.87;;;1.00;;
23099;SDS011;53791;50.696;4.396;2023-06-22T03:39:59;1.77;;;1.20;;
23099;SDS011;53791;50.696;4.396;2023-06-22T03:42:27;1.85;;;1.30;;
23099;SDS011;53791;50.696;4.396;2023-06-22T03:44:54;2.90;;;1.30;;
23099;SDS011;53791;50.696;4.396;2023-06-22T03:47:22;2.62;;;1.40;;
23099;SDS011;53791;50.696;4.396;2023-06-22T03:49:49;2.20;;;1.27;;
23099;SDS011;53791;50.696;4.396;2023-06-22T03:52:18;2.25;;;1.52;;
23099;SDS011;53791;50.696;4.396;2023-06-22T03:54:46;2.75;;;1.75;;
23099;SDS011;53791;50.696;4.396;2023-06-22T03:57:14;2.40;;;1.62;;
23099;SDS011;53791;50.696;4.396;2023-06-22T03:59:41;3.77;;;1.77;;
23099;SDS011;53791;50.696;4.396;2023-06-22T04:02:09;2.98;;;1.90;;
23099;SDS011;53791;50.696;4.396;2023-06-22T04:04:36;2.58;;;1.50;;
23099;SDS011;53791;50.696;4.396;2023-06-22T04:07:05;2.15;;;1.52;;
23099;SDS011;53791;50.696;4.396;2023-06-22T04:09:32;3.30;;;1.65;;
23099;SDS011;53791;50.696;4.396;2023-06-22T04:12:00;2.83;;;1.75;;
23099;SDS011;53791;50.696;4.396;2023-06-22T04:14:31;2.00;;;1.40;;
23099;SDS011;53791;50.696;4.396;2023-06-22T04:16:58;5.40;;;2.35;;
23099;SDS011;53791;50.696;4.396;2023-06-22T04:19:26;3.35;;;1.95;;
23099;SDS011;53791;50.696;4.396;2023-06-22T04:21:53;6.00;;;2.27;;
23099;SDS011;53791;50.696;4.396;2023-06-22T04:24:24;2.02;;;1.40;;
23099;SDS011;53791;50.696;4.396;2023-06-22T04:26:51;2.75;;;1.57;;
23099;SDS011;53791;50.696;4.396;2023-06-22T04:29:23;3.05;;;1.70;;
23099;SDS011;53791;50.696;4.396;2023-06-22T04:31:54;3.08;;;1.80;;
23099;SDS011;53791;50.696;4.396;2023-06-22T04:34:24;3.30;;;2.50;;
23099;SDS011;53791;50.696;4.396;2023-06-22T04:36:55;2.33;;;1.87;;
23099;SDS011;53791;50.696;4.396;2023-06-22T04:39:23;2.33;;;1.82;;
23099;SDS011;53791;50.696;4.396;2023-06-22T04:41:52;2.40;;;1.72;;
23099;SDS011;53791;50.696;4.396;2023-06-22T04:44:21;2.17;;;1.52;;
23099;SDS011;53791;50.696;4.396;2023-06-22T04:46:52;4.15;;;2.35;;
23099;SDS011;53791;50.696;4.396;2023-06-22T04:49:22;3.65;;;2.12;;
23099;SDS011;53791;50.696;4.396;2023-06-22T04:51:51;3.30;;;1.70;;
23099;SDS011;53791;50.696;4.396;2023-06-22T04:54:20;3.15;;;1.85;;
23099;SDS011;53791;50.696;4.396;2023-06-22T04:56:48;2.75;;;1.98;;
23099;SDS011;53791;50.696;4.396;2023-06-22T04:59:17;4.67;;;2.30;;
23099;SDS011;53791;50.696;4.396;2023-06-22T05:01:45;2.67;;;1.72;;
23099;SDS011;53791;50.696;4.396;2023-06-22T05:04:12;1.87;;;1.20;;
23099;SDS011;53791;50.696;4.396;2023-06-22T05:06:40;2.62;;;1.32;;
23099;SDS011;53791;50.696;4.396;2023-06-22T05:09:07;2.70;;;1.90;;
23099;SDS011;53791;50.696;4.396;2023-06-22T05:11:35;2.17;;;1.52;;
23099;SDS011;53791;50.696;4.396;2023-06-22T05:14:03;3.45;;;2.20;;
23099;SDS011;53791;50.696;4.396;2023-06-22T05:16:30;3.27;;;2.25;;
23099;SDS011;53791;50.696;4.396;2023-06-22T05:18:58;4.75;;;2.33;;
23099;SDS011;53791;50.696;4.396;2023-06-22T05:21:26;3.33;;;2.33;;
23099;SDS011;53791;50.696;4.396;2023-06-22T05:23:54;4.75;;;2.52;;
23099;SDS011;53791;50.696;4.396;2023-06-22T05:26:23;2.95;;;1.62;;
23099;SDS011;53791;50.696;4.396;2023-06-22T05:28:51;2.65;;;2.00;;
23099;SDS011;53791;50.696;4.396;2023-06-22T05:31:21;3.55;;;2.05;;
23099;SDS011;53791;50.696;4.396;2023-06-22T05:33:50;4.10;;;3.12;;
23099;SDS011;53791;50.696;4.396;2023-06-22T05:36:19;6.60;;;2.65;;
23099;SDS011;53791;50.696;4.396;2023-06-22T05:38:49;4.35;;;2.65;;
23099;SDS011;53791;50.696;4.396;2023-06-22T05:41:17;2.98;;;2.35;;
23099;SDS011;53791;50.696;4.396;2023-06-22T05:43:45;3.35;;;2.50;;
23099;SDS011;53791;50.696;4.396;2023-06-22T05:46:12;4.28;;;3.12;;
23099;SDS011;53791;50.696;4.396;2023-06-22T05:48:40;6.55;;;2.85;;
23099;SDS011;53791;50.696;4.396;2023-06-22T05:51:07;5.15;;;2.95;;
23099;SDS011;53791;50.696;4.396;2023-06-22T05:53:35;4.85;;;2.85;;
23099;SDS011;53791;50.696;4.396;2023-06-22T05:56:05;3.85;;;2.90;;
23099;SDS011;53791;50.696;4.396;2023-06-22T05:58:31;3.62;;;3.10;;
23099;SDS011;53791;50.696;4.396;2023-06-22T06:00:59;4.12;;;3.25;;
23099;SDS011;53791;50.696;4.396;2023-06-22T06:03:27;4.42;;;3.50;;
23099;SDS011;53791;50.696;4.396;2023-06-22T06:05:54;7.55;;;3.85;;
23099;SDS011;53791;50.696;4.396;2023-06-22T06:08:24;5.47;;;3.25;;
23099;SDS011;53791;50.696;4.396;2023-06-22T06:10:51;4.47;;;3.17;;
23099;SDS011;53791;50.696;4.396;2023-06-22T06:13:20;6.03;;;3.80;;
23099;SDS011;53791;50.696;4.396;2023-06-22T06:15:48;6.55;;;3.92;;
23099;SDS011;53791;50.696;4.396;2023-06-22T06:18:17;3.67;;;2.83;;
23099;SDS011;53791;50.696;4.396;2023-06-22T06:20:44;6.95;;;4.53;;
23099;SDS011;53791;50.696;4.396;2023-06-22T06:23:12;12.03;;;3.35;;
23099;SDS011;53791;50.696;4.396;2023-06-22T06:25:39;8.80;;;3.75;;
23099;SDS011;53791;50.696;4.396;2023-06-22T06:28:07;5.00;;;2.90;;
23099;SDS011;53791;50.696;4.396;2023-06-22T06:30:34;5.67;;;3.20;;
23099;SDS011;53791;50.696;4.396;2023-06-22T06:33:03;5.97;;;3.90;;
23099;SDS011;53791;50.696;4.396;2023-06-22T06:35:32;4.65;;;3.20;;
23099;SDS011;53791;50.696;4.396;2023-06-22T06:37:59;5.30;;;4.15;;
23099;SDS011;53791;50.696;4.396;2023-06-22T06:40:28;6.35;;;3.87;;
23099;SDS011;53791;50.696;4.396;2023-06-22T06:42:55;4.58;;;3.27;;
23099;SDS011;53791;50.696;4.396;2023-06-22T06:45:23;8.03;;;4.22;;
23099;SDS011;53791;50.696;4.396;2023-06-22T06:47:52;6.45;;;3.25;;
23099;SDS011;53791;50.696;4.396;2023-06-22T06:50:20;4.85;;;2.85;;
23099;SDS011;53791;50.696;4.396;2023-06-22T06:52:47;4.12;;;2.70;;
23099;SDS011;53791;50.696;4.396;2023-06-22T06:55:16;5.05;;;3.85;;
23099;SDS011;53791;50.696;4.396;2023-06-22T06:57:45;5.90;;;4.33;;
23099;SDS011;53791;50.696;4.396;2023-06-22T07:00:14;4.67;;;3.22;;
23099;SDS011;53791;50.696;4.396;2023-06-22T07:02:43;7.97;;;3.85;;
23099;SDS011;53791;50.696;4.396;2023-06-22T07:05:13;3.60;;;3.02;;
23099;SDS011;53791;50.696;4.396;2023-06-22T07:07:40;5.87;;;3.67;;
23099;SDS011;53791;50.696;4.396;2023-06-22T07:10:08;4.75;;;3.47;;
23099;SDS011;53791;50.696;4.396;2023-06-22T07:12:36;5.12;;;3.72;;
23099;SDS011;53791;50.696;4.396;2023-06-22T07:15:07;5.17;;;3.75;;
23099;SDS011;53791;50.696;4.396;2023-06-22T07:17:38;6.15;;;4.20;;
23099;SDS011;53791;50.696;4.396;2023-06-22T07:20:09;5.75;;;3.77;;
23099;SDS011;53791;50.696;4.396;2023-06-22T07:22:38;5.22;;;3.85;;
23099;SDS011;53791;50.696;4.396;2023-06-22T07:25:06;4.53;;;3.58;;
23099;SDS011;53791;50.696;4.396;2023-06-22T07:27:39;6.78;;;3.83;;
23099;SDS011;53791;50.696;4.396;2023-06-22T07:30:09;7.22;;;3.80;;
23099;SDS011;53791;50.696;4.396;2023-06-22T07:32:59;3.35;;;2.62;;
23099;SDS011;53791;50.696;4.396;2023-06-22T07:35:18;8.65;;;4.10;;
23099;SDS011;53791;50.696;4.396;2023-06-22T07:37:45;5.28;;;3.55;;
23099;SDS011;53791;50.696;4.396;2023-06-22T07:40:13;5.67;;;3.42;;
23099;SDS011;53791;50.696;4.396;2023-06-22T07:42:41;4.12;;;2.75;;
23099;SDS011;53791;50.696;4.396;2023-06-22T07:45:08;5.78;;;3.92;;
23099;SDS011;53791;50.696;4.396;2023-06-22T07:47:36;4.00;;;2.87;;
23099;SDS011;53791;50.696;4.396;2023-06-22T07:50:04;7.17;;;3.20;;
23099;SDS011;53791;50.696;4.396;2023-06-22T07:52:32;4.00;;;2.58;;
23099;SDS011;53791;50.696;4.396;2023-06-22T07:55:00;3.60;;;2.87;;
23099;SDS011;53791;50.696;4.396;2023-06-22T07:57:28;4.08;;;2.98;;
23099;SDS011;53791;50.696;4.396;2023-06-22T08:00:00;3.08;;;2.52;;
23099;SDS011;53791;50.696;4.396;2023-06-22T08:02:30;5.17;;;4.03;;
23099;SDS011;53791;50.696;4.396;2023-06-22T08:04:58;6.40;;;3.25;;
23099;SDS011;53791;50.696;4.396;2023-06-22T08:07:25;7.30;;;2.95;;
23099;SDS011;53791;50.696;4.396;2023-06-22T08:09:53;26.20;;;3.42;;
23099;SDS011;53791;50.696;4.396;2023-06-22T08:12:20;4.80;;;3.42;;
23099;SDS011;53791;50.696;4.396;2023-06-22T08:14:48;10.43;;;3.08;;
23099;SDS011;53791;50.696;4.396;2023-06-22T08:17:16;4.05;;;2.70;;
23099;SDS011;53791;50.696;4.396;2023-06-22T08:19:43;5.45;;;3.00;;
23099;SDS011;53791;50.696;4.396;2023-06-22T08:22:11;4.42;;;2.77;;
23099;SDS011;53791;50.696;4.396;2023-06-22T08:24:38;3.92;;;2.67;;
23099;SDS011;53791;50.696;4.396;2023-06-22T08:27:06;4.78;;;2.77;;
23099;SDS011;53791;50.696;4.396;2023-06-22T08:29:45;3.20;;;2.52;;
23099;SDS011;53791;50.696;4.396;2023-06-22T08:32:12;4.03;;;3.00;;
23099;SDS011;53791;50.696;4.396;2023-06-22T08:34:40;5.17;;;2.77;;
23099;SDS011;53791;50.696;4.396;2023-06-22T08:37:08;3.02;;;2.40;;
23099;SDS011;53791;50.696;4.396;2023-06-22T08:39:36;4.37;;;2.58;;
23099;SDS011;53791;50.696;4.396;2023-06-22T08:42:06;3.62;;;2.42;;
23099;SDS011;53791;50.696;4.396;2023-06-22T08:44:34;4.00;;;2.75;;
23099;SDS011;53791;50.696;4.396;2023-06-22T08:47:01;3.75;;;2.35;;
23099;SDS011;53791;50.696;4.396;2023-06-22T08:49:29;4.42;;;2.62;;
23099;SDS011;53791;50.696;4.396;2023-06-22T08:51:57;4.45;;;2.87;;
23099;SDS011;53791;50.696;4.396;2023-06-22T08:54:24;3.95;;;2.50;;
23099;SDS011;53791;50.696;4.396;2023-06-22T08:56:52;3.58;;;2.98;;
23099;SDS011;53791;50.696;4.396;2023-06-22T08:59:19;10.28;;;2.75;;
23099;SDS011;53791;50.696;4.396;2023-06-22T09:01:47;10.23;;;2.55;;
23099;SDS011;53791;50.696;4.396;2023-06-22T09:04:14;4.30;;;3.02;;
23099;SDS011;53791;50.696;4.396;2023-06-22T09:06:42;7.62;;;3.05;;
23099;SDS011;53791;50.696;4.396;2023-06-22T09:09:15;4.78;;;2.75;;
23099;SDS011;53791;50.696;4.396;2023-06-22T09:11:43;3.00;;;2.33;;
23099;SDS011;53791;50.696;4.396;2023-06-22T09:14:11;3.20;;;2.20;;
23099;SDS011;53791;50.696;4.396;2023-06-22T09:16:38;3.37;;;2.20;;
23099;SDS011;53791;50.696;4.396;2023-06-22T09:19:06;3.47;;;2.83;;
23099;SDS011;53791;50.696;4.396;2023-06-22T09:21:33;3.05;;;2.55;;
23099;SDS011;53791;50.696;4.396;2023-06-22T09:24:01;5.92;;;2.62;;
23099;SDS011;53791;50.696;4.396;2023-06-22T09:26:29;5.00;;;2.83;;
23099;SDS011;53791;50.696;4.396;2023-06-22T09:29:02;4.37;;;2.95;;
23099;SDS011;53791;50.696;4.396;2023-06-22T09:31:26;4.55;;;2.65;;
23099;SDS011;53791;50.696;4.396;2023-06-22T09:33:55;3.47;;;2.85;;
23099;SDS011;53791;50.696;4.396;2023-06-22T09:36:22;3.27;;;2.67;;
23099;SDS011;53791;50.696;4.396;2023-06-22T09:38:50;5.08;;;3.92;;
23099;SDS011;53791;50.696;4.396;2023-06-22T09:41:19;5.62;;;4.22;;
23099;SDS011;53791;50.696;4.396;2023-06-22T09:43:47;7.58;;;4.50;;
23099;SDS011;53791;50.696;4.396;2023-06-22T09:46:16;5.03;;;4.50;;
23099;SDS011;53791;50.696;4.396;2023-06-22T09:48:46;6.20;;;4.55;;
23099;SDS011;53791;50.696;4.396;2023-06-22T09:51:14;4.22;;;3.67;;
23099;SDS011;53791;50.696;4.396;2023-06-22T09:53:42;7.75;;;4.33;;
23099;SDS011;53791;50.696;4.396;2023-06-22T09:56:09;9.95;;;4.20;;
23099;SDS011;53791;50.696;4.396;2023-06-22T09:58:39;8.38;;;4.30;;
23099;SDS011;53791;50.696;4.396;2023-06-22T10:01:06;5.15;;;4.33;;
23099;SDS011;53791;50.696;4.396;2023-06-22T10:03:34;8.03;;;5.47;;
23099;SDS011;53791;50.696;4.396;2023-06-22T10:06:02;5.08;;;4.53;;
23099;SDS011;53791;50.696;4.396;2023-06-22T10:08:29;7.60;;;4.50;;
23099;SDS011;53791;50.696;4.396;2023-06-22T10:10:57;4.67;;;3.67;;
23099;SDS011;53791;50.696;4.396;2023-06-22T10:13:25;6.37;;;5.12;;
23099;SDS011;53791;50.696;4.396;2023-06-22T10:15:52;5.20;;;4.70;;
23099;SDS011;53791;50.696;4.396;2023-06-22T10:18:21;5.40;;;4.58;;
23099;SDS011;53791;50.696;4.396;2023-06-22T10:20:50;10.60;;;4.53;;
23099;SDS011;53791;50.696;4.396;2023-06-22T10:23:19;6.33;;;4.35;;
23099;SDS011;53791;50.696;4.396;2023-06-22T10:25:47;5.42;;;4.87;;
23099;SDS011;53791;50.696;4.396;2023-06-22T10:28:14;5.55;;;4.50;;
23099;SDS011;53791;50.696;4.396;2023-06-22T10:30:42;5.45;;;4.45;;
23099;SDS011;53791;50.696;4.396;2023-06-22T10:33:22;5.20;;;4.60;;
23099;SDS011;53791;50.696;4.396;2023-06-22T10:35:49;6.00;;;4.47;;
23099;SDS011;53791;50.696;4.396;2023-06-22T10:38:17;4.20;;;3.80;;
23099;SDS011;53791;50.696;4.396;2023-06-22T10:40:44;5.37;;;4.12;;
23099;SDS011;53791;50.696;4.396;2023-06-22T10:43:12;5.25;;;4.00;;
23099;SDS011;53791;50.696;4.396;2023-06-22T10:45:42;5.75;;;4.60;;
23099;SDS011;53791;50.696;4.396;2023-06-22T10:48:09;7.28;;;4.40;;
23099;SDS011;53791;50.696;4.396;2023-06-22T10:53:10;4.50;;;4.10;;
23099;SDS011;53791;50.696;4.396;2023-06-22T10:55:38;5.47;;;4.40;;
23099;SDS011;53791;50.696;4.396;2023-06-22T10:58:05;4.30;;;3.87;;
23099;SDS011;53791;50.696;4.396;2023-06-22T11:00:33;7.05;;;4.92;;
23099;SDS011;53791;50.696;4.396;2023-06-22T11:03:00;5.50;;;4.87;;
23099;SDS011;53791;50.696;4.396;2023-06-22T11:05:28;4.83;;;4.35;;
23099;SDS011;53791;50.696;4.396;2023-06-22T11:07:55;6.37;;;4.78;;
23099;SDS011;53791;50.696;4.396;2023-06-22T11:10:23;6.75;;;5.62;;
23099;SDS011;53791;50.696;4.396;2023-06-22T11:12:51;5.95;;;4.67;;
23099;SDS011;53791;50.696;4.396;2023-06-22T11:15:21;7.80;;;4.83;;
23099;SDS011;53791;50.696;4.396;2023-06-22T11:17:48;6.53;;;4.70;;
23099;SDS011;53791;50.696;4.396;2023-06-22T11:20:16;7.12;;;5.00;;
23099;SDS011;53791;50.696;4.396;2023-06-22T11:22:43;4.70;;;4.28;;
23099;SDS011;53791;50.696;4.396;2023-06-22T11:25:11;5.12;;;4.50;;
23099;SDS011;53791;50.696;4.396;2023-06-22T11:27:38;6.58;;;4.72;;
23099;SDS011;53791;50.696;4.396;2023-06-22T11:30:06;5.95;;;4.62;;
23099;SDS011;53791;50.696;4.396;2023-06-22T11:32:34;5.80;;;4.42;;
23099;SDS011;53791;50.696;4.396;2023-06-22T11:35:02;5.70;;;4.85;;
23099;SDS011;53791;50.696;4.396;2023-06-22T11:37:30;6.20;;;5.60;;
23099;SDS011;53791;50.696;4.396;2023-06-22T11:39:57;5.15;;;4.62;;
23099;SDS011;53791;50.696;4.396;2023-06-22T11:42:25;9.80;;;5.65;;
23099;SDS011;53791;50.696;4.396;2023-06-22T11:44:54;8.08;;;6.37;;
23099;SDS011;53791;50.696;4.396;2023-06-22T11:47:23;7.40;;;5.83;;
23099;SDS011;53791;50.696;4.396;2023-06-22T11:49:51;9.68;;;5.80;;
23099;SDS011;53791;50.696;4.396;2023-06-22T11:52:19;5.58;;;4.55;;
23099;SDS011;53791;50.696;4.396;2023-06-22T11:54:46;7.62;;;6.15;;
23099;SDS011;53791;50.696;4.396;2023-06-22T11:57:14;8.35;;;6.17;;
23099;SDS011;53791;50.696;4.396;2023-06-22T11:59:41;8.45;;;5.75;;
23099;SDS011;53791;50.696;4.396;2023-06-22T12:02:09;8.05;;;5.15;;
23099;SDS011;53791;50.696;4.396;2023-06-22T12:04:36;6.17;;;5.40;;
23099;SDS011;53791;50.696;4.396;2023-06-22T12:07:04;12.65;;;6.58;;
23099;SDS011;53791;50.696;4.396;2023-06-22T12:09:31;10.65;;;5.53;;
23099;SDS011;53791;50.696;4.396;2023-06-22T12:11:59;6.80;;;6.10;;
23099;SDS011;53791;50.696;4.396;2023-06-22T12:14:27;8.35;;;5.85;;
23099;SDS011;53791;50.696;4.396;2023-06-22T12:16:54;11.15;;;5.50;;
23099;SDS011;53791;50.696;4.396;2023-06-22T12:19:22;9.40;;;6.03;;
23099;SDS011;53791;50.696;4.396;2023-06-22T12:21:50;8.08;;;6.22;;
23099;SDS011;53791;50.696;4.396;2023-06-22T12:24:17;8.13;;;5.95;;
23099;SDS011;53791;50.696;4.396;2023-06-22T12:26:45;7.80;;;6.08;;
23099;SDS011;53791;50.696;4.396;2023-06-22T12:29:12;6.10;;;5.50;;
23099;SDS011;53791;50.696;4.396;2023-06-22T12:31:40;8.78;;;5.87;;
23099;SDS011;53791;50.696;4.396;2023-06-22T12:34:07;7.50;;;4.90;;
23099;SDS011;53791;50.696;4.396;2023-06-22T12:36:35;6.10;;;5.35;;
23099;SDS011;53791;50.696;4.396;2023-06-22T12:39:02;8.73;;;5.65;;
23099;SDS011;53791;50.696;4.396;2023-06-22T12:41:30;6.30;;;5.42;;
23099;SDS011;53791;50.696;4.396;2023-06-22T12:43:57;6.60;;;5.90;;
23099;SDS011;53791;50.696;4.396;2023-06-22T12:46:25;8.35;;;6.80;;
23099;SDS011;53791;50.696;4.396;2023-06-22T12:48:53;6.20;;;5.60;;
23099;SDS011;53791;50.696;4.396;2023-06-22T12:51:21;7.78;;;6.00;;
23099;SDS011;53791;50.696;4.396;2023-06-22T12:53:49;7.67;;;5.85;;
23099;SDS011;53791;50.696;4.396;2023-06-22T12:56:17;9.95;;;5.87;;
23099;SDS011;53791;50.696;4.396;2023-06-22T12:58:44;9.03;;;6.37;;
23099;SDS011;53791;50.696;4.396;2023-06-22T13:01:12;7.08;;;5.17;;
23099;SDS011;53791;50.696;4.396;2023-06-22T13:03:41;7.87;;;6.45;;
23099;SDS011;53791;50.696;4.396;2023-06-22T13:06:09;7.55;;;6.17;;
23099;SDS011;53791;50.696;4.396;2023-06-22T13:08:36;10.13;;;7.08;;
23099;SDS011;53791;50.696;4.396;2023-06-22T13:11:04;6.60;;;5.62;;
23099;SDS011;53791;50.696;4.396;2023-06-22T13:13:31;25.60;;;5.97;;
23099;SDS011;53791;50.696;4.396;2023-06-22T13:15:59;10.13;;;6.85;;
23099;SDS011;53791;50.696;4.396;2023-06-22T13:18:27;8.93;;;7.03;;
23099;SDS011;53791;50.696;4.396;2023-06-22T13:20:54;10.78;;;6.12;;
23099;SDS011;53791;50.696;4.396;2023-06-22T13:23:23;7.28;;;6.03;;
23099;SDS011;53791;50.696;4.396;2023-06-22T13:25:51;7.35;;;6.12;;
23099;SDS011;53791;50.696;4.396;2023-06-22T13:28:19;8.70;;;5.50;;
23099;SDS011;53791;50.696;4.396;2023-06-22T13:30:46;7.15;;;6.10;;
23099;SDS011;53791;50.696;4.396;2023-06-22T13:33:14;8.73;;;6.78;;
23099;SDS011;53791;50.696;4.396;2023-06-22T13:35:42;11.65;;;6.85;;
23099;SDS011;53791;50.696;4.396;2023-06-22T13:38:10;11.20;;;6.53;;
23099;SDS011;53791;50.696;4.396;2023-06-22T13:40:37;7.35;;;6.58;;
23099;SDS011;53791;50.696;4.396;2023-06-22T13:43:05;12.47;;;6.58;;
23099;SDS011;53791;50.696;4.396;2023-06-22T13:45:33;7.42;;;6.25;;
23099;SDS011;53791;50.696;4.396;2023-06-22T13:48:00;9.50;;;6.62;;
23099;SDS011;53791;50.696;4.396;2023-06-22T13:50:30;7.72;;;6.92;;
23099;SDS011;53791;50.696;4.396;2023-06-22T13:52:57;7.72;;;7.03;;
23099;SDS011;53791;50.696;4.396;2023-06-22T13:55:25;7.25;;;6.22;;
23099;SDS011;53791;50.696;4.396;2023-06-22T13:57:52;7.47;;;6.55;;
23099;SDS011;53791;50.696;4.396;2023-06-22T14:00:20;15.08;;;7.47;;
23099;SDS011;53791;50.696;4.396;2023-06-22T14:02:47;11.33;;;7.92;;
23099;SDS011;53791;50.696;4.396;2023-06-22T14:05:15;10.88;;;7.78;;
23099;SDS011;53791;50.696;4.396;2023-06-22T14:07:42;12.30;;;7.75;;
23099;SDS011;53791;50.696;4.396;2023-06-22T14:10:10;12.35;;;6.95;;
23099;SDS011;53791;50.696;4.396;2023-06-22T14:12:38;11.38;;;7.15;;
23099;SDS011;53791;50.696;4.396;2023-06-22T14:15:05;8.13;;;7.17;;
23099;SDS011;53791;50.696;4.396;2023-06-22T14:17:33;10.43;;;8.28;;
23099;SDS011;53791;50.696;4.396;2023-06-22T14:20:01;9.05;;;7.60;;
23099;SDS011;53791;50.696;4.396;2023-06-22T14:22:30;10.30;;;8.23;;
23099;SDS011;53791;50.696;4.396;2023-06-22T14:24:58;12.35;;;8.63;;
23099;SDS011;53791;50.696;4.396;2023-06-22T14:27:25;9.30;;;8.30;;
23099;SDS011;53791;50.696;4.396;2023-06-22T14:29:53;9.20;;;7.62;;
23099;SDS011;53791;50.696;4.396;2023-06-22T14:32:20;8.23;;;7.42;;
23099;SDS011;53791;50.696;4.396;2023-06-22T14:34:48;11.25;;;8.13;;
23099;SDS011;53791;50.696;4.396;2023-06-22T14:37:15;11.88;;;8.50;;
23099;SDS011;53791;50.696;4.396;2023-06-22T14:39:43;8.68;;;7.67;;
23099;SDS011;53791;50.696;4.396;2023-06-22T14:42:10;10.13;;;8.68;;
23099;SDS011;53791;50.696;4.396;2023-06-22T14:44:38;8.85;;;8.05;;
23099;SDS011;53791;50.696;4.396;2023-06-22T14:47:05;11.18;;;9.03;;
23099;SDS011;53791;50.696;4.396;2023-06-22T14:49:33;11.10;;;8.75;;
23099;SDS011;53791;50.696;4.396;2023-06-22T14:52:08;14.75;;;8.80;;
23099;SDS011;53791;50.696;4.396;2023-06-22T14:54:35;8.93;;;8.03;;
23099;SDS011;53791;50.696;4.396;2023-06-22T14:57:03;9.70;;;8.80;;
23099;SDS011;53791;50.696;4.396;2023-06-22T14:59:30;13.50;;;9.33;;
23099;SDS011;53791;50.696;4.396;2023-06-22T15:01:58;10.10;;;9.00;;